sensor_id;sensor_type;location;lat;lon;timestamp;temperature;humidity
752;DHT22;360;48.764;9.164;2022-12-07T04:41:31;5.70;1.00
752;DHT22;360;48.764;9.164;2022-12-07T04:44:01;4.10;1.00
752;DHT22;360;48.764;9.164;2022-12-07T04:46:30;4.20;99.90
752;DHT22;360;48.764;9.164;2022-12-07T04:48:57;4.10;99.90
752;DHT22;360;48.764;9.164;2022-12-07T04:51:26;4.30;99.90
752;DHT22;360;48.764;9.164;2022-12-07T04:53:53;4.40;1.00
752;DHT22;360;48.764;9.164;2022-12-07T04:56:21;4.40;1.00
752;DHT22;360;48.764;9.164;2022-12-07T04:58:48;4.60;99.90
752;DHT22;360;48.764;9.164;2022-12-07T05:01:17;4.60;99.90
752;DHT22;360;48.764;9.164;2022-12-07T05:03:44;4.40;94.30
752;DHT22;360;48.764;9.164;2022-12-07T05:06:12;4.50;1.00
752;DHT22;360;48.764;9.164;2022-12-07T05:08:39;4.40;99.90
752;DHT22;360;48.764;9.164;2022-12-07T05:11:06;4.40;1.00
752;DHT22;360;48.764;9.164;2022-12-07T05:13:36;4.60;99.90
752;DHT22;360;48.764;9.164;2022-12-07T05:16:03;4.60;99.90
752;DHT22;360;48.764;9.164;2022-12-07T05:18:31;4.50;99.90
752;DHT22;360;48.764;9.164;2022-12-07T05:20:58;4.50;99.90
752;DHT22;360;48.764;9.164;2022-12-07T05:23:25;4.50;1.00
752;DHT22;360;48.764;9.164;2022-12-07T05:25:51;4.40;1.00
752;DHT22;360;48.764;9.164;2022-12-07T05:28:18;4.30;1.00
752;DHT22;360;48.764;9.164;2022-12-07T05:30:45;4.50;99.90
752;DHT22;360;48.764;9.164;2022-12-07T05:33:12;4.60;99.90
752;DHT22;360;48.764;9.164;2022-12-07T05:35:40;4.60;96.70
752;DHT22;360;48.764;9.164;2022-12-07T05:38:07;4.60;99.90
752;DHT22;360;48.764;9.164;2022-12-07T05:40:34;4.70;95.60
752;DHT22;360;48.764;9.164;2022-12-07T05:43:00;4.60;1.00
752;DHT22;360;48.764;9.164;2022-12-07T05:45:27;4.50;99.90
752;DHT22;360;48.764;9.164;2022-12-07T05:47:54;4.40;99.90
752;DHT22;360;48.764;9.164;2022-12-07T05:50:21;4.50;99.90
752;DHT22;360;48.764;9.164;2022-12-07T05:52:49;4.60;99.90
752;DHT22;360;48.764;9.164;2022-12-07T05:55:16;4.60;99.90
752;DHT22;360;48.764;9.164;2022-12-07T05:57:42;4.60;99.90
752;DHT22;360;48.764;9.164;2022-12-07T06:00:30;4.70;99.90
752;DHT22;360;48.764;9.164;2022-12-07T06:02:56;4.80;99.90
752;DHT22;360;48.764;9.164;2022-12-07T06:05:23;4.70;99.90
752;DHT22;360;48.764;9.164;2022-12-07T06:07:51;4.80;99.90
752;DHT22;360;48.764;9.164;2022-12-07T06:10:18;4.90;99.90
752;DHT22;360;48.764;9.164;2022-12-07T06:12:44;4.90;99.90
752;DHT22;360;48.764;9.164;2022-12-07T06:15:11;4.80;99.90
752;DHT22;360;48.764;9.164;2022-12-07T06:17:39;4.70;99.90
752;DHT22;360;48.764;9.164;2022-12-07T06:20:07;4.60;99.90
752;DHT22;360;48.764;9.164;2022-12-07T06:22:34;4.60;1.00
752;DHT22;360;48.764;9.164;2022-12-07T06:25:02;4.60;1.00
752;DHT22;360;48.764;9.164;2022-12-07T06:27:29;4.30;1.00
752;DHT22;360;48.764;9.164;2022-12-07T06:29:56;4.40;1.00
752;DHT22;360;48.764;9.164;2022-12-07T06:32:23;4.40;1.00
752;DHT22;360;48.764;9.164;2022-12-07T06:34:50;4.50;1.00
752;DHT22;360;48.764;9.164;2022-12-07T06:37:17;4.20;7.30
752;DHT22;360;48.764;9.164;2022-12-07T06:39:43;4.10;1.00
752;DHT22;360;48.764;9.164;2022-12-07T06:42:12;4.20;1.00
752;DHT22;360;48.764;9.164;2022-12-07T06:44:39;4.10;1.00
752;DHT22;360;48.764;9.164;2022-12-07T06:47:05;4.20;1.00
752;DHT22;360;48.764;9.164;2022-12-07T06:49:33;4.10;99.90
752;DHT22;360;48.764;9.164;2022-12-07T06:52:00;4.10;1.00
752;DHT22;360;48.764;9.164;2022-12-07T06:54:26;4.10;1.00
752;DHT22;360;48.764;9.164;2022-12-07T06:56:55;4.10;99.90
752;DHT22;360;48.764;9.164;2022-12-07T06:59:23;4.00;1.00
752;DHT22;360;48.764;9.164;2022-12-07T07:01:50;3.90;99.90
752;DHT22;360;48.764;9.164;2022-12-07T07:04:17;3.80;1.00
752;DHT22;360;48.764;9.164;2022-12-07T07:06:44;4.20;99.90
752;DHT22;360;48.764;9.164;2022-12-07T07:09:11;4.10;13.20
752;DHT22;360;48.764;9.164;2022-12-07T07:11:38;3.90;14.60
752;DHT22;360;48.764;9.164;2022-12-07T07:14:05;4.30;1.00
752;DHT22;360;48.764;9.164;2022-12-07T07:16:33;4.30;99.90
752;DHT22;360;48.764;9.164;2022-12-07T07:18:59;4.20;55.20
752;DHT22;360;48.764;9.164;2022-12-07T07:21:26;4.20;1.00
752;DHT22;360;48.764;9.164;2022-12-07T07:23:53;4.30;99.90
752;DHT22;360;48.764;9.164;2022-12-07T07:26:20;4.30;99.90
752;DHT22;360;48.764;9.164;2022-12-07T07:28:47;4.40;99.90
752;DHT22;360;48.764;9.164;2022-12-07T07:31:13;4.30;58.10
752;DHT22;360;48.764;9.164;2022-12-07T07:33:41;4.30;99.90
752;DHT22;360;48.764;9.164;2022-12-07T07:36:09;4.30;99.90
752;DHT22;360;48.764;9.164;2022-12-07T07:38:36;4.30;1.00
752;DHT22;360;48.764;9.164;2022-12-07T07:41:02;4.20;1.00
752;DHT22;360;48.764;9.164;2022-12-07T07:43:29;4.40;99.90
752;DHT22;360;48.764;9.164;2022-12-07T07:45:56;4.20;1.00
752;DHT22;360;48.764;9.164;2022-12-07T07:48:23;4.10;28.00
752;DHT22;360;48.764;9.164;2022-12-07T07:50:52;4.20;1.00
752;DHT22;360;48.764;9.164;2022-12-07T07:53:18;4.20;26.90
752;DHT22;360;48.764;9.164;2022-12-07T07:55:51;4.00;85.10
752;DHT22;360;48.764;9.164;2022-12-07T07:58:18;4.10;99.90
752;DHT22;360;48.764;9.164;2022-12-07T08:00:45;4.00;1.00
752;DHT22;360;48.764;9.164;2022-12-07T08:03:12;3.90;1.00
752;DHT22;360;48.764;9.164;2022-12-07T08:05:39;4.00;1.00
752;DHT22;360;48.764;9.164;2022-12-07T08:08:07;4.10;99.90
752;DHT22;360;48.764;9.164;2022-12-07T08:10:34;4.20;87.00
752;DHT22;360;48.764;9.164;2022-12-07T08:13:02;4.20;1.00
752;DHT22;360;48.764;9.164;2022-12-07T08:15:40;4.20;1.00
752;DHT22;360;48.764;9.164;2022-12-07T08:18:07;4.10;1.00
752;DHT22;360;48.764;9.164;2022-12-07T08:20:36;4.20;1.00
752;DHT22;360;48.764;9.164;2022-12-07T08:23:03;4.20;1.00
752;DHT22;360;48.764;9.164;2022-12-07T08:25:31;4.20;1.00
752;DHT22;360;48.764;9.164;2022-12-07T08:27:58;4.40;99.90
752;DHT22;360;48.764;9.164;2022-12-07T08:30:26;4.50;93.60
752;DHT22;360;48.764;9.164;2022-12-07T08:32:53;4.50;99.90
752;DHT22;360;48.764;9.164;2022-12-07T08:35:20;4.60;1.00
752;DHT22;360;48.764;9.164;2022-12-07T08:37:47;4.70;1.00
752;DHT22;360;48.764;9.164;2022-12-07T08:40:14;4.80;1.00
752;DHT22;360;48.764;9.164;2022-12-07T08:42:43;4.70;99.90
752;DHT22;360;48.764;9.164;2022-12-07T08:45:12;4.80;99.90
752;DHT22;360;48.764;9.164;2022-12-07T08:47:43;4.80;99.90
752;DHT22;360;48.764;9.164;2022-12-07T08:50:11;5.10;82.50
752;DHT22;360;48.764;9.164;2022-12-07T08:52:39;5.10;1.00
752;DHT22;360;48.764;9.164;2022-12-07T08:55:08;5.10;1.00
752;DHT22;360;48.764;9.164;2022-12-07T08:57:36;5.10;1.00
752;DHT22;360;48.764;9.164;2022-12-07T09:00:06;5.10;7.00
752;DHT22;360;48.764;9.164;2022-12-07T09:02:33;5.40;99.90
752;DHT22;360;48.764;9.164;2022-12-07T09:04:59;5.20;1.00
752;DHT22;360;48.764;9.164;2022-12-07T09:07:27;5.30;1.00
752;DHT22;360;48.764;9.164;2022-12-07T09:09:54;5.30;1.00
752;DHT22;360;48.764;9.164;2022-12-07T09:12:21;5.30;1.00
752;DHT22;360;48.764;9.164;2022-12-07T09:14:48;5.30;1.00
752;DHT22;360;48.764;9.164;2022-12-07T09:17:16;5.40;1.00
752;DHT22;360;48.764;9.164;2022-12-07T09:19:43;5.90;1.00
752;DHT22;360;48.764;9.164;2022-12-07T09:22:10;5.60;1.00
752;DHT22;360;48.764;9.164;2022-12-07T09:24:37;5.40;1.00
752;DHT22;360;48.764;9.164;2022-12-07T09:27:04;5.30;1.00
752;DHT22;360;48.764;9.164;2022-12-07T09:29:31;5.30;1.00
752;DHT22;360;48.764;9.164;2022-12-07T09:31:57;5.40;1.00
752;DHT22;360;48.764;9.164;2022-12-07T09:34:25;5.40;1.00
752;DHT22;360;48.764;9.164;2022-12-07T09:36:53;5.40;1.00
752;DHT22;360;48.764;9.164;2022-12-07T09:39:19;5.40;1.00
752;DHT22;360;48.764;9.164;2022-12-07T09:41:46;5.40;1.00
752;DHT22;360;48.764;9.164;2022-12-07T09:44:23;5.60;1.00
752;DHT22;360;48.764;9.164;2022-12-07T09:46:50;5.80;1.00
752;DHT22;360;48.764;9.164;2022-12-07T09:49:20;5.80;99.90
752;DHT22;360;48.764;9.164;2022-12-07T09:52:00;5.90;99.90
752;DHT22;360;48.764;9.164;2022-12-07T09:54:28;6.00;99.90
752;DHT22;360;48.764;9.164;2022-12-07T09:56:56;6.00;99.90
752;DHT22;360;48.764;9.164;2022-12-07T09:59:22;6.00;99.90
752;DHT22;360;48.764;9.164;2022-12-07T10:01:50;6.00;99.90
752;DHT22;360;48.764;9.164;2022-12-07T10:04:19;6.10;99.90
752;DHT22;360;48.764;9.164;2022-12-07T10:06:47;6.10;99.90
752;DHT22;360;48.764;9.164;2022-12-07T10:09:19;6.20;99.90
752;DHT22;360;48.764;9.164;2022-12-07T10:12:04;6.20;99.90
752;DHT22;360;48.764;9.164;2022-12-07T10:14:33;6.10;99.90
752;DHT22;360;48.764;9.164;2022-12-07T10:17:01;6.10;99.90
752;DHT22;360;48.764;9.164;2022-12-07T10:19:29;6.10;99.90
752;DHT22;360;48.764;9.164;2022-12-07T10:22:00;6.10;99.90
752;DHT22;360;48.764;9.164;2022-12-07T10:24:29;6.10;99.90
752;DHT22;360;48.764;9.164;2022-12-07T10:26:56;6.20;99.90
752;DHT22;360;48.764;9.164;2022-12-07T10:29:24;6.20;99.90
752;DHT22;360;48.764;9.164;2022-12-07T10:31:57;6.20;99.90
752;DHT22;360;48.764;9.164;2022-12-07T10:34:26;6.30;99.90
752;DHT22;360;48.764;9.164;2022-12-07T10:37:11;6.00;99.90
752;DHT22;360;48.764;9.164;2022-12-07T10:39:43;6.20;99.90
752;DHT22;360;48.764;9.164;2022-12-07T10:42:17;6.30;99.90
752;DHT22;360;48.764;9.164;2022-12-07T10:44:44;6.20;99.90
752;DHT22;360;48.764;9.164;2022-12-07T10:47:31;6.30;99.90
752;DHT22;360;48.764;9.164;2022-12-07T10:50:18;6.40;99.90
752;DHT22;360;48.764;9.164;2022-12-07T10:53:03;6.20;99.90
752;DHT22;360;48.764;9.164;2022-12-07T10:55:41;6.20;99.90
752;DHT22;360;48.764;9.164;2022-12-07T10:58:25;6.30;99.90
752;DHT22;360;48.764;9.164;2022-12-07T11:01:00;6.40;99.90
752;DHT22;360;48.764;9.164;2022-12-07T11:03:39;6.40;99.90
752;DHT22;360;48.764;9.164;2022-12-07T11:06:20;6.50;99.90
752;DHT22;360;48.764;9.164;2022-12-07T11:09:00;6.40;99.90
752;DHT22;360;48.764;9.164;2022-12-07T11:11:33;6.50;99.90
752;DHT22;360;48.764;9.164;2022-12-07T11:14:08;6.60;99.90
752;DHT22;360;48.764;9.164;2022-12-07T11:16:52;6.60;99.90
752;DHT22;360;48.764;9.164;2022-12-07T11:19:32;6.40;99.90
752;DHT22;360;48.764;9.164;2022-12-07T11:22:06;6.30;99.90
752;DHT22;360;48.764;9.164;2022-12-07T11:24:42;6.30;99.90
752;DHT22;360;48.764;9.164;2022-12-07T11:27:22;6.50;99.90
752;DHT22;360;48.764;9.164;2022-12-07T11:32:56;6.20;1.00
752;DHT22;360;48.764;9.164;2022-12-07T11:35:32;6.30;1.00
752;DHT22;360;48.764;9.164;2022-12-07T11:38:08;6.40;1.00
752;DHT22;360;48.764;9.164;2022-12-07T11:40:37;6.20;1.00
752;DHT22;360;48.764;9.164;2022-12-07T11:43:13;6.20;1.00
752;DHT22;360;48.764;9.164;2022-12-07T11:45:42;6.20;1.00
752;DHT22;360;48.764;9.164;2022-12-07T11:48:14;6.30;1.00
752;DHT22;360;48.764;9.164;2022-12-07T11:50:45;6.20;1.00
752;DHT22;360;48.764;9.164;2022-12-07T11:53:17;6.20;1.00
752;DHT22;360;48.764;9.164;2022-12-07T11:55:49;6.20;1.00
752;DHT22;360;48.764;9.164;2022-12-07T11:58:35;6.10;1.00
752;DHT22;360;48.764;9.164;2022-12-07T12:01:14;6.10;1.00
752;DHT22;360;48.764;9.164;2022-12-07T12:03:46;6.10;1.00
752;DHT22;360;48.764;9.164;2022-12-07T12:06:13;6.20;1.00
752;DHT22;360;48.764;9.164;2022-12-07T12:08:45;6.30;1.00
752;DHT22;360;48.764;9.164;2022-12-07T12:11:20;6.30;1.00
752;DHT22;360;48.764;9.164;2022-12-07T12:17:09;6.20;1.00
752;DHT22;360;48.764;9.164;2022-12-07T12:19:40;6.20;17.90
752;DHT22;360;48.764;9.164;2022-12-07T12:22:14;6.30;1.00
752;DHT22;360;48.764;9.164;2022-12-07T12:24:43;6.20;90.10
752;DHT22;360;48.764;9.164;2022-12-07T12:27:18;6.20;99.90
752;DHT22;360;48.764;9.164;2022-12-07T12:29:54;6.20;99.90
752;DHT22;360;48.764;9.164;2022-12-07T12:32:23;6.40;99.90
752;DHT22;360;48.764;9.164;2022-12-07T12:35:00;6.40;99.90
752;DHT22;360;48.764;9.164;2022-12-07T12:37:44;6.20;99.90
752;DHT22;360;48.764;9.164;2022-12-07T12:40:42;6.10;99.90
752;DHT22;360;48.764;9.164;2022-12-07T12:43:45;6.10;99.90
752;DHT22;360;48.764;9.164;2022-12-07T12:46:55;6.10;99.90
752;DHT22;360;48.764;9.164;2022-12-07T12:52:49;6.30;99.90
752;DHT22;360;48.764;9.164;2022-12-07T12:58:38;6.40;95.60
752;DHT22;360;48.764;9.164;2022-12-07T13:01:41;6.40;23.20
752;DHT22;360;48.764;9.164;2022-12-07T13:07:11;6.20;15.30
752;DHT22;360;48.764;9.164;2022-12-07T13:09:43;6.20;61.60
752;DHT22;360;48.764;9.164;2022-12-07T13:12:13;6.40;1.00
752;DHT22;360;48.764;9.164;2022-12-07T13:14:58;6.40;1.00
752;DHT22;360;48.764;9.164;2022-12-07T13:18:00;6.20;1.00
752;DHT22;360;48.764;9.164;2022-12-07T13:20:56;6.30;1.00
752;DHT22;360;48.764;9.164;2022-12-07T13:23:29;6.40;1.00
752;DHT22;360;48.764;9.164;2022-12-07T13:26:04;6.60;1.00
752;DHT22;360;48.764;9.164;2022-12-07T13:28:38;6.10;1.00
752;DHT22;360;48.764;9.164;2022-12-07T13:34:01;6.20;1.00
752;DHT22;360;48.764;9.164;2022-12-07T13:36:32;6.30;1.00
752;DHT22;360;48.764;9.164;2022-12-07T13:39:16;6.40;1.00
752;DHT22;360;48.764;9.164;2022-12-07T13:41:44;6.40;1.00
752;DHT22;360;48.764;9.164;2022-12-07T13:44:17;6.20;1.00
752;DHT22;360;48.764;9.164;2022-12-07T13:46:49;6.30;1.00
752;DHT22;360;48.764;9.164;2022-12-07T13:49:21;6.40;1.00
752;DHT22;360;48.764;9.164;2022-12-07T13:51:50;6.40;1.00
752;DHT22;360;48.764;9.164;2022-12-07T13:54:17;6.50;1.00
752;DHT22;360;48.764;9.164;2022-12-07T13:56:48;6.50;1.00
752;DHT22;360;48.764;9.164;2022-12-07T13:59:18;6.40;1.00
752;DHT22;360;48.764;9.164;2022-12-07T14:01:47;6.40;1.00
752;DHT22;360;48.764;9.164;2022-12-07T14:04:19;6.40;1.00
752;DHT22;360;48.764;9.164;2022-12-07T14:06:55;6.40;1.00
752;DHT22;360;48.764;9.164;2022-12-07T14:09:24;6.30;1.00
752;DHT22;360;48.764;9.164;2022-12-07T14:11:53;6.30;1.00
752;DHT22;360;48.764;9.164;2022-12-07T14:14:22;6.30;1.00
752;DHT22;360;48.764;9.164;2022-12-07T14:17:01;6.10;1.00
752;DHT22;360;48.764;9.164;2022-12-07T14:19:43;6.10;1.00
752;DHT22;360;48.764;9.164;2022-12-07T14:22:22;6.30;1.00
752;DHT22;360;48.764;9.164;2022-12-07T14:24:49;6.30;1.00
752;DHT22;360;48.764;9.164;2022-12-07T14:27:18;6.00;1.00
752;DHT22;360;48.764;9.164;2022-12-07T14:29:45;6.00;1.00
752;DHT22;360;48.764;9.164;2022-12-07T14:32:20;5.90;1.00
752;DHT22;360;48.764;9.164;2022-12-07T14:34:57;5.80;1.00
752;DHT22;360;48.764;9.164;2022-12-07T14:37:26;6.10;1.00
752;DHT22;360;48.764;9.164;2022-12-07T14:39:53;6.10;1.00
752;DHT22;360;48.764;9.164;2022-12-07T14:42:20;6.20;1.00
752;DHT22;360;48.764;9.164;2022-12-07T14:44:48;6.20;1.00
752;DHT22;360;48.764;9.164;2022-12-07T14:47:15;6.20;1.00
752;DHT22;360;48.764;9.164;2022-12-07T14:49:42;5.90;1.00
752;DHT22;360;48.764;9.164;2022-12-07T14:52:13;6.00;1.00
752;DHT22;360;48.764;9.164;2022-12-07T14:54:42;5.90;1.00
752;DHT22;360;48.764;9.164;2022-12-07T14:57:10;5.70;1.00
752;DHT22;360;48.764;9.164;2022-12-07T14:59:37;5.70;99.90
752;DHT22;360;48.764;9.164;2022-12-07T15:02:05;5.70;99.90
752;DHT22;360;48.764;9.164;2022-12-07T15:04:31;5.60;99.90
752;DHT22;360;48.764;9.164;2022-12-07T15:07:00;5.60;99.90
752;DHT22;360;48.764;9.164;2022-12-07T15:09:27;5.60;99.90
752;DHT22;360;48.764;9.164;2022-12-07T15:11:55;5.60;99.90
752;DHT22;360;48.764;9.164;2022-12-07T15:14:22;5.70;99.90
752;DHT22;360;48.764;9.164;2022-12-07T15:16:48;5.70;99.90
752;DHT22;360;48.764;9.164;2022-12-07T15:19:17;5.80;99.90
752;DHT22;360;48.764;9.164;2022-12-07T15:21:45;5.90;99.90
752;DHT22;360;48.764;9.164;2022-12-07T15:24:12;5.90;99.90
752;DHT22;360;48.764;9.164;2022-12-07T15:26:40;6.00;99.90
752;DHT22;360;48.764;9.164;2022-12-07T15:29:08;5.90;99.90
752;DHT22;360;48.764;9.164;2022-12-07T15:31:36;5.70;99.90
752;DHT22;360;48.764;9.164;2022-12-07T15:34:03;5.60;99.90
752;DHT22;360;48.764;9.164;2022-12-07T15:36:32;5.70;99.90
752;DHT22;360;48.764;9.164;2022-12-07T15:38:59;5.70;99.90
752;DHT22;360;48.764;9.164;2022-12-07T15:41:26;5.40;99.90
752;DHT22;360;48.764;9.164;2022-12-07T15:43:53;5.40;1.00
752;DHT22;360;48.764;9.164;2022-12-07T15:46:39;5.40;1.00
752;DHT22;360;48.764;9.164;2022-12-07T15:49:10;5.30;1.00
752;DHT22;360;48.764;9.164;2022-12-07T15:51:37;5.40;1.00
752;DHT22;360;48.764;9.164;2022-12-07T15:54:04;5.20;1.00
752;DHT22;360;48.764;9.164;2022-12-07T15:56:31;5.20;1.00
752;DHT22;360;48.764;9.164;2022-12-07T15:58:57;5.30;1.00
752;DHT22;360;48.764;9.164;2022-12-07T16:01:24;5.20;1.00
752;DHT22;360;48.764;9.164;2022-12-07T16:03:52;5.40;1.00
752;DHT22;360;48.764;9.164;2022-12-07T16:06:19;5.20;1.00
752;DHT22;360;48.764;9.164;2022-12-07T16:08:46;5.30;1.00
752;DHT22;360;48.764;9.164;2022-12-07T16:11:13;5.20;1.00
752;DHT22;360;48.764;9.164;2022-12-07T16:13:40;5.00;7.20
752;DHT22;360;48.764;9.164;2022-12-07T16:16:09;5.00;99.90
752;DHT22;360;48.764;9.164;2022-12-07T16:18:36;5.00;99.90
752;DHT22;360;48.764;9.164;2022-12-07T16:21:05;4.90;99.90
752;DHT22;360;48.764;9.164;2022-12-07T16:23:32;5.00;99.90
752;DHT22;360;48.764;9.164;2022-12-07T16:26:06;5.00;99.90
752;DHT22;360;48.764;9.164;2022-12-07T16:28:33;4.90;99.90
752;DHT22;360;48.764;9.164;2022-12-07T16:31:02;4.80;99.90
752;DHT22;360;48.764;9.164;2022-12-07T16:33:29;4.80;99.90
752;DHT22;360;48.764;9.164;2022-12-07T16:35:58;4.80;99.90
752;DHT22;360;48.764;9.164;2022-12-07T16:38:26;4.80;99.90
752;DHT22;360;48.764;9.164;2022-12-07T16:40:53;4.80;1.00
752;DHT22;360;48.764;9.164;2022-12-07T16:43:20;4.60;1.00
752;DHT22;360;48.764;9.164;2022-12-07T16:45:47;4.60;99.90
752;DHT22;360;48.764;9.164;2022-12-07T16:48:14;4.60;99.90
752;DHT22;360;48.764;9.164;2022-12-07T16:50:42;4.80;1.00
752;DHT22;360;48.764;9.164;2022-12-07T16:53:09;4.70;99.90
752;DHT22;360;48.764;9.164;2022-12-07T16:55:38;4.50;99.90
752;DHT22;360;48.764;9.164;2022-12-07T16:58:06;4.50;1.00
752;DHT22;360;48.764;9.164;2022-12-07T17:00:33;4.50;99.90
752;DHT22;360;48.764;9.164;2022-12-07T17:03:00;4.50;1.00
752;DHT22;360;48.764;9.164;2022-12-07T17:05:27;4.60;95.50
752;DHT22;360;48.764;9.164;2022-12-07T17:07:55;4.60;99.90
752;DHT22;360;48.764;9.164;2022-12-07T17:10:22;4.50;99.90
752;DHT22;360;48.764;9.164;2022-12-07T17:12:51;4.30;1.00
752;DHT22;360;48.764;9.164;2022-12-07T17:15:18;4.20;99.90
752;DHT22;360;48.764;9.164;2022-12-07T17:17:47;4.40;1.00
752;DHT22;360;48.764;9.164;2022-12-07T17:20:17;4.60;1.00
752;DHT22;360;48.764;9.164;2022-12-07T17:22:45;4.40;99.90
752;DHT22;360;48.764;9.164;2022-12-07T17:25:12;4.50;99.90
752;DHT22;360;48.764;9.164;2022-12-07T17:27:39;4.40;99.90
752;DHT22;360;48.764;9.164;2022-12-07T17:30:08;4.40;1.00
752;DHT22;360;48.764;9.164;2022-12-07T17:32:35;4.50;1.00
752;DHT22;360;48.764;9.164;2022-12-07T17:35:03;4.40;99.90
752;DHT22;360;48.764;9.164;2022-12-07T17:37:30;4.30;1.00
752;DHT22;360;48.764;9.164;2022-12-07T17:39:57;4.30;99.90
752;DHT22;360;48.764;9.164;2022-12-07T17:42:24;4.40;99.90
752;DHT22;360;48.764;9.164;2022-12-07T17:45:08;4.40;1.00
752;DHT22;360;48.764;9.164;2022-12-07T17:47:36;4.50;1.00
752;DHT22;360;48.764;9.164;2022-12-07T18:56:45;4.60;99.90
752;DHT22;360;48.764;9.164;2022-12-07T18:59:12;4.80;99.90
752;DHT22;360;48.764;9.164;2022-12-07T19:01:56;4.90;99.90
752;DHT22;360;48.764;9.164;2022-12-07T19:04:23;4.80;99.90
752;DHT22;360;48.764;9.164;2022-12-07T19:06:51;4.90;46.50
752;DHT22;360;48.764;9.164;2022-12-07T21:35:01;4.90;1.00
752;DHT22;360;48.764;9.164;2022-12-07T21:37:28;4.50;1.00
752;DHT22;360;48.764;9.164;2022-12-07T21:39:56;4.40;99.90
752;DHT22;360;48.764;9.164;2022-12-07T21:42:23;4.50;99.90
752;DHT22;360;48.764;9.164;2022-12-07T21:44:50;4.50;3.80
752;DHT22;360;48.764;9.164;2022-12-07T21:47:16;4.70;1.00
752;DHT22;360;48.764;9.164;2022-12-07T21:49:43;4.40;1.00
752;DHT22;360;48.764;9.164;2022-12-07T21:52:10;4.30;99.90
752;DHT22;360;48.764;9.164;2022-12-07T21:54:37;4.40;99.90
752;DHT22;360;48.764;9.164;2022-12-07T21:57:06;4.40;99.90
752;DHT22;360;48.764;9.164;2022-12-07T21:59:33;4.30;1.00
752;DHT22;360;48.764;9.164;2022-12-07T22:02:00;4.40;1.00
752;DHT22;360;48.764;9.164;2022-12-07T22:04:27;4.30;1.00
752;DHT22;360;48.764;9.164;2022-12-07T22:06:54;4.30;99.90
752;DHT22;360;48.764;9.164;2022-12-07T22:09:23;4.20;1.00
752;DHT22;360;48.764;9.164;2022-12-07T22:11:52;4.10;99.90
752;DHT22;360;48.764;9.164;2022-12-07T22:14:20;4.00;1.00
752;DHT22;360;48.764;9.164;2022-12-07T22:17:04;4.00;1.00
752;DHT22;360;48.764;9.164;2022-12-07T22:19:31;4.00;99.90
752;DHT22;360;48.764;9.164;2022-12-07T22:21:58;4.10;1.00
752;DHT22;360;48.764;9.164;2022-12-07T22:24:24;4.20;1.00
752;DHT22;360;48.764;9.164;2022-12-07T22:26:51;4.20;99.90
752;DHT22;360;48.764;9.164;2022-12-07T22:29:19;4.20;1.00
752;DHT22;360;48.764;9.164;2022-12-07T22:31:48;4.20;99.90
752;DHT22;360;48.764;9.164;2022-12-07T22:34:16;4.10;57.00
752;DHT22;360;48.764;9.164;2022-12-07T22:36:43;4.00;1.00
752;DHT22;360;48.764;9.164;2022-12-07T22:39:10;3.90;1.00
752;DHT22;360;48.764;9.164;2022-12-07T22:41:37;4.00;99.90
752;DHT22;360;48.764;9.164;2022-12-07T22:44:05;3.90;99.90
752;DHT22;360;48.764;9.164;2022-12-07T22:46:34;3.80;99.90
752;DHT22;360;48.764;9.164;2022-12-07T22:49:01;3.90;1.00
752;DHT22;360;48.764;9.164;2022-12-07T22:51:29;3.90;99.90
752;DHT22;360;48.764;9.164;2022-12-07T22:53:57;3.90;1.00
752;DHT22;360;48.764;9.164;2022-12-07T22:56:25;3.80;99.90
752;DHT22;360;48.764;9.164;2022-12-07T22:58:52;3.60;99.90
752;DHT22;360;48.764;9.164;2022-12-07T23:01:20;3.50;1.00
752;DHT22;360;48.764;9.164;2022-12-07T23:03:49;3.50;99.90
752;DHT22;360;48.764;9.164;2022-12-07T23:06:18;3.30;1.00
752;DHT22;360;48.764;9.164;2022-12-07T23:08:46;3.40;99.90
752;DHT22;360;48.764;9.164;2022-12-07T23:11:15;3.30;1.00
752;DHT22;360;48.764;9.164;2022-12-07T23:13:56;3.10;1.00
752;DHT22;360;48.764;9.164;2022-12-07T23:16:23;3.00;39.50
752;DHT22;360;48.764;9.164;2022-12-07T23:18:51;3.00;1.00
752;DHT22;360;48.764;9.164;2022-12-07T23:21:18;2.90;99.90
752;DHT22;360;48.764;9.164;2022-12-07T23:23:44;3.10;35.50
752;DHT22;360;48.764;9.164;2022-12-07T23:26:11;3.00;48.00
752;DHT22;360;48.764;9.164;2022-12-07T23:28:39;2.90;1.00
752;DHT22;360;48.764;9.164;2022-12-07T23:31:07;3.10;1.00
752;DHT22;360;48.764;9.164;2022-12-07T23:33:34;3.20;99.90
752;DHT22;360;48.764;9.164;2022-12-07T23:36:13;3.30;99.90
752;DHT22;360;48.764;9.164;2022-12-07T23:38:42;3.40;99.90
752;DHT22;360;48.764;9.164;2022-12-07T23:41:11;3.40;99.90
752;DHT22;360;48.764;9.164;2022-12-07T23:43:38;3.40;99.90
752;DHT22;360;48.764;9.164;2022-12-07T23:46:07;3.40;1.00
752;DHT22;360;48.764;9.164;2022-12-07T23:48:34;3.70;99.90
752;DHT22;360;48.764;9.164;2022-12-07T23:51:01;3.80;99.90
752;DHT22;360;48.764;9.164;2022-12-07T23:53:32;3.60;99.90
752;DHT22;360;48.764;9.164;2022-12-07T23:55:59;3.80;99.90
752;DHT22;360;48.764;9.164;2022-12-07T23:58:26;3.90;1.00
